createdAt,value
2023-12-28T00:02:12.614Z,14.57
2023-12-28T00:04:39.343Z,9.70
2023-12-28T00:07:06.068Z,11.43
2023-12-28T00:09:32.953Z,11.57
2023-12-28T00:12:00.147Z,9.30
2023-12-28T00:14:26.952Z,6.03
2023-12-28T00:16:53.729Z,9.48
2023-12-28T00:19:22.585Z,7.72
2023-12-28T00:21:49.801Z,13.18
2023-12-28T00:24:17.994Z,16.02
2023-12-28T00:26:45.091Z,11.45
2023-12-28T00:29:12.759Z,13.43
2023-12-28T00:31:39.632Z,11.13
2023-12-28T00:34:06.564Z,13.43
2023-12-28T00:36:33.473Z,13.50
2023-12-28T00:39:00.345Z,15.52
2023-12-28T00:41:27.145Z,12.68
2023-12-28T00:43:54.010Z,14.43
2023-12-28T00:46:20.695Z,13.20
2023-12-28T00:48:47.619Z,13.50
2023-12-28T00:51:15.279Z,13.73
2023-12-28T00:53:42.011Z,10.57
2023-12-28T00:56:10.385Z,10.05
2023-12-28T00:58:44.776Z,10.40
2023-12-28T01:01:11.981Z,14.40
2023-12-28T01:03:38.966Z,12.43
2023-12-28T01:06:08.979Z,17.83
2023-12-28T01:08:35.857Z,15.38
2023-12-28T01:11:03.454Z,15.00
2023-12-28T01:13:30.537Z,20.35
2023-12-28T01:15:57.711Z,11.68
2023-12-28T01:18:24.848Z,11.90
2023-12-28T01:20:51.660Z,12.05
2023-12-28T01:23:18.380Z,10.02
2023-12-28T01:25:45.104Z,8.70
2023-12-28T01:28:11.919Z,6.95
2023-12-28T01:30:38.708Z,6.68
2023-12-28T01:33:05.838Z,5.97
2023-12-28T01:35:32.575Z,11.25
2023-12-28T01:38:01.749Z,9.18
2023-12-28T01:40:28.636Z,6.32
2023-12-28T01:42:55.430Z,4.40
2023-12-28T01:45:22.320Z,9.23
2023-12-28T01:47:50.181Z,9.45
2023-12-28T01:50:17.768Z,3.55
2023-12-28T01:52:44.937Z,5.32
2023-12-28T01:55:12.617Z,9.55
2023-12-28T01:57:39.702Z,5.20
2023-12-28T02:00:07.631Z,6.07
2023-12-28T02:02:35.590Z,7.82
2023-12-28T02:05:03.035Z,5.32
2023-12-28T02:07:31.152Z,6.47
2023-12-28T02:09:57.877Z,5.88
2023-12-28T02:12:24.794Z,7.85
2023-12-28T02:14:51.626Z,5.45
2023-12-28T02:17:41.742Z,8.45
2023-12-28T02:20:10.186Z,5.90
2023-12-28T02:22:37.637Z,5.28
2023-12-28T02:25:12.722Z,6.07
2023-12-28T02:27:40.874Z,4.57
2023-12-28T02:30:09.355Z,5.35
2023-12-28T02:32:51.145Z,3.58
2023-12-28T02:35:45.557Z,4.72
2023-12-28T02:38:14.625Z,5.88
2023-12-28T02:40:45.450Z,5.07
2023-12-28T02:43:12.997Z,6.72
2023-12-28T02:45:40.696Z,9.75
2023-12-28T02:48:08.191Z,4.00
2023-12-28T02:50:36.103Z,4.70
2023-12-28T02:53:03.282Z,3.33
2023-12-28T02:55:29.987Z,3.33
2023-12-28T02:58:02.045Z,6.68
2023-12-28T03:00:29.969Z,4.00
2023-12-28T03:02:56.944Z,4.60
2023-12-28T03:05:23.869Z,8.88
2023-12-28T03:07:51.330Z,9.10
2023-12-28T03:10:18.181Z,4.78
2023-12-28T03:12:45.095Z,3.65
2023-12-28T03:15:12.081Z,3.95
2023-12-28T03:17:39.002Z,4.50
2023-12-28T03:20:07.163Z,4.32
2023-12-28T03:22:34.287Z,5.80
2023-12-28T03:25:01.193Z,3.75
2023-12-28T03:27:28.015Z,2.90
2023-12-28T03:29:54.828Z,5.25
2023-12-28T03:32:21.653Z,5.65
2023-12-28T03:34:48.439Z,7.90
2023-12-28T03:37:15.245Z,5.07
2023-12-28T03:39:42.265Z,3.00
2023-12-28T03:42:09.003Z,2.88
2023-12-28T03:44:35.782Z,4.28
2023-12-28T03:47:02.528Z,6.90
2023-12-28T03:49:29.395Z,5.10
2023-12-28T03:51:56.359Z,3.25
2023-12-28T03:54:23.196Z,5.47
2023-12-28T03:56:49.939Z,5.85
2023-12-28T03:59:16.833Z,3.05
2023-12-28T04:01:43.790Z,5.72
2023-12-28T04:04:11.286Z,5.88
2023-12-28T04:06:39.267Z,4.85
2023-12-28T04:09:06.372Z,3.38
2023-12-28T04:11:33.313Z,10.25
2023-12-28T04:14:00.305Z,6.68
2023-12-28T04:16:27.076Z,3.42
2023-12-28T04:18:53.930Z,8.27
2023-12-28T04:21:20.851Z,7.70
2023-12-28T04:23:47.590Z,4.60
2023-12-28T04:26:14.587Z,5.05
2023-12-28T04:28:41.434Z,8.23
2023-12-28T04:31:08.865Z,6.65
2023-12-28T04:33:36.133Z,9.32
2023-12-28T04:36:07.157Z,6.30
2023-12-28T04:38:34.301Z,8.50
2023-12-28T04:41:01.632Z,8.80
2023-12-28T04:43:28.499Z,6.63
2023-12-28T04:45:55.354Z,6.15
2023-12-28T04:48:25.002Z,7.78
2023-12-28T04:50:52.432Z,4.68
2023-12-28T04:53:19.132Z,9.75
2023-12-28T04:55:45.819Z,14.23
2023-12-28T04:58:13.437Z,7.00
2023-12-28T05:00:40.438Z,6.10
2023-12-28T05:03:07.707Z,4.97
2023-12-28T05:05:34.772Z,5.75
2023-12-28T05:08:01.925Z,5.43
2023-12-28T05:10:28.902Z,6.13
2023-12-28T05:13:01.488Z,7.18
2023-12-28T05:15:29.601Z,6.18
2023-12-28T05:17:56.741Z,4.32
2023-12-28T05:20:23.921Z,5.93
2023-12-28T05:22:51.284Z,7.68
2023-12-28T05:25:18.191Z,9.38
2023-12-28T05:27:45.225Z,5.82
2023-12-28T05:30:13.367Z,5.15
2023-12-28T05:32:40.993Z,6.20
2023-12-28T05:35:08.798Z,10.88
2023-12-28T05:37:35.730Z,5.82
2023-12-28T05:40:02.947Z,5.38
2023-12-28T05:42:29.784Z,5.80
2023-12-28T05:44:56.480Z,6.47
2023-12-28T05:47:23.303Z,9.63
2023-12-28T05:49:50.226Z,8.80
2023-12-28T05:52:19.890Z,9.68
2023-12-28T05:54:47.198Z,12.10
2023-12-28T05:57:14.053Z,8.23
2023-12-28T05:59:43.689Z,5.70
2023-12-28T06:02:10.598Z,6.15
2023-12-28T06:04:37.620Z,5.55
2023-12-28T06:07:05.405Z,4.78
2023-12-28T06:09:33.104Z,8.75
2023-12-28T06:12:00.102Z,7.30
2023-12-28T06:14:26.923Z,6.80
2023-12-28T06:16:53.709Z,3.88
2023-12-28T06:19:20.577Z,9.00
2023-12-28T06:21:47.433Z,3.88
2023-12-28T06:24:14.348Z,7.60
2023-12-28T06:26:42.517Z,12.35
2023-12-28T06:29:10.632Z,6.18
2023-12-28T06:31:38.612Z,8.90
2023-12-28T06:34:06.435Z,8.68
2023-12-28T06:36:33.770Z,7.07
2023-12-28T06:39:01.070Z,6.97
2023-12-28T06:41:28.045Z,8.32
2023-12-28T06:43:54.913Z,6.85
2023-12-28T06:46:21.816Z,6.85
2023-12-28T06:48:49.199Z,10.88
2023-12-28T06:51:23.771Z,8.32
2023-12-28T06:53:51.185Z,7.53
2023-12-28T06:56:18.572Z,10.07
2023-12-28T06:58:45.942Z,8.68
2023-12-28T07:01:13.789Z,8.15
2023-12-28T07:03:41.732Z,10.38
2023-12-28T07:06:09.662Z,11.57
2023-12-28T07:08:37.499Z,8.48
2023-12-28T07:11:05.492Z,7.63
2023-12-28T07:13:32.843Z,4.72
2023-12-28T07:16:00.603Z,9.15
2023-12-28T07:18:28.810Z,10.40
2023-12-28T07:20:56.405Z,10.45
2023-12-28T07:23:23.209Z,8.27
2023-12-28T07:25:50.113Z,5.60
2023-12-28T07:28:16.970Z,6.45
2023-12-28T07:30:44.032Z,10.15
2023-12-28T07:33:11.054Z,9.85
2023-12-28T07:35:38.302Z,8.20
2023-12-28T07:38:05.104Z,8.43
2023-12-28T07:40:31.946Z,11.57
2023-12-28T07:42:59.035Z,9.35
2023-12-28T07:45:26.180Z,4.75
2023-12-28T07:47:53.770Z,12.40
2023-12-28T07:50:21.062Z,7.30
2023-12-28T07:52:49.322Z,6.20
2023-12-28T07:55:16.768Z,8.18
2023-12-28T07:57:44.135Z,9.98
2023-12-28T08:00:11.772Z,9.65
2023-12-28T08:02:38.919Z,12.60
2023-12-28T08:05:06.716Z,8.40
2023-12-28T08:07:33.593Z,14.90
2023-12-28T08:10:00.739Z,9.43
2023-12-28T08:12:30.425Z,8.75
2023-12-28T08:14:57.615Z,11.15
2023-12-28T08:17:24.559Z,8.70
2023-12-28T08:19:51.755Z,9.73
2023-12-28T08:22:20.090Z,15.35
2023-12-28T08:24:47.128Z,11.98
2023-12-28T08:27:14.154Z,13.55
2023-12-28T08:29:43.429Z,13.05
2023-12-28T08:32:12.029Z,10.43
2023-12-28T08:34:39.555Z,13.18
2023-12-28T08:37:08.314Z,10.25
2023-12-28T08:39:35.144Z,7.78
2023-12-28T08:42:02.185Z,5.75
2023-12-28T08:44:29.011Z,8.55
2023-12-28T08:46:55.905Z,14.80
2023-12-28T08:49:24.597Z,8.55
2023-12-28T08:51:51.837Z,10.15
2023-12-28T08:54:19.014Z,10.73
2023-12-28T08:56:48.085Z,17.17
2023-12-28T08:59:16.338Z,10.85
2023-12-28T09:01:43.058Z,7.90
2023-12-28T09:04:10.103Z,6.50
2023-12-28T09:06:37.026Z,12.88
2023-12-28T09:09:05.048Z,11.60
2023-12-28T09:11:31.987Z,13.18
2023-12-28T09:13:58.691Z,12.57
2023-12-28T09:16:25.453Z,10.75
2023-12-28T09:18:52.559Z,8.98
2023-12-28T09:21:19.426Z,6.95
2023-12-28T09:23:46.159Z,11.35
2023-12-28T09:26:13.014Z,14.52
2023-12-28T09:28:39.799Z,9.80
2023-12-28T09:31:06.862Z,8.02
2023-12-28T09:33:33.875Z,10.85
2023-12-28T09:36:01.076Z,7.82
2023-12-28T09:38:29.210Z,9.90
2023-12-28T09:40:59.350Z,7.18
2023-12-28T09:43:31.896Z,6.80
2023-12-28T09:45:58.681Z,10.63
2023-12-28T09:48:26.056Z,7.45
2023-12-28T09:50:58.676Z,9.43
2023-12-28T09:53:26.565Z,13.95
2023-12-28T09:55:53.953Z,9.15
2023-12-28T09:58:22.336Z,10.20
2023-12-28T10:00:51.010Z,9.10
2023-12-28T10:03:18.964Z,13.65
2023-12-28T10:05:49.337Z,12.10
2023-12-28T10:08:17.214Z,10.13
2023-12-28T10:10:52.278Z,12.38
2023-12-28T10:15:46.332Z,6.57
2023-12-28T10:18:13.523Z,10.38
2023-12-28T10:20:40.639Z,5.93
2023-12-28T10:23:08.346Z,9.18
2023-12-28T10:25:37.265Z,12.00
2023-12-28T10:30:36.666Z,9.27
2023-12-28T10:33:07.584Z,5.72
2023-12-28T10:35:35.201Z,8.75
2023-12-28T10:38:04.780Z,12.00
2023-12-28T10:40:36.509Z,8.27
2023-12-28T10:43:11.380Z,6.88
2023-12-28T10:45:41.052Z,7.07
2023-12-28T10:48:09.348Z,9.63
2023-12-28T10:50:58.440Z,6.75
2023-12-28T10:53:30.932Z,7.20
2023-12-28T10:56:29.252Z,9.55
2023-12-28T10:59:17.015Z,8.18
2023-12-28T11:01:48.149Z,8.65
2023-12-28T11:04:28.792Z,11.48
2023-12-28T11:06:57.459Z,10.82
2023-12-28T11:11:52.728Z,5.18
2023-12-28T11:14:19.589Z,12.15
2023-12-28T11:16:46.870Z,8.50
2023-12-28T11:19:14.467Z,9.90
2023-12-28T11:21:41.932Z,11.23
2023-12-28T11:24:09.297Z,6.35
2023-12-28T11:26:36.075Z,9.70
2023-12-28T11:29:04.206Z,6.53
2023-12-28T11:31:37.849Z,13.32
2023-12-28T11:34:12.698Z,12.38
2023-12-28T11:36:52.768Z,8.93
2023-12-28T11:39:35.990Z,8.10
2023-12-28T11:42:06.381Z,9.18
2023-12-28T11:44:45.192Z,8.93
2023-12-28T11:47:32.151Z,9.82
2023-12-28T11:50:08.670Z,7.18
2023-12-28T11:52:35.410Z,6.78
2023-12-28T11:55:02.614Z,7.28
2023-12-28T11:57:29.703Z,10.35
2023-12-28T12:00:01.243Z,7.03
2023-12-28T12:02:28.360Z,7.43
2023-12-28T12:04:56.596Z,6.63
2023-12-28T12:07:23.434Z,10.13
2023-12-28T12:09:50.217Z,5.97
2023-12-28T12:12:17.615Z,8.57
2023-12-28T12:14:44.485Z,12.63
2023-12-28T12:17:11.655Z,11.55
2023-12-28T12:19:39.167Z,8.75
2023-12-28T12:22:06.150Z,8.10
2023-12-28T12:24:34.426Z,10.70
2023-12-28T12:27:03.489Z,9.98
2023-12-28T12:29:33.147Z,10.45
2023-12-28T12:32:00.311Z,6.22
2023-12-28T12:34:27.371Z,6.78
2023-12-28T12:36:56.128Z,9.05
2023-12-28T12:39:26.689Z,11.43
2023-12-28T12:41:53.839Z,8.77
2023-12-28T12:44:21.879Z,6.88
2023-12-28T12:46:48.904Z,8.45
2023-12-28T12:49:17.610Z,7.78
2023-12-28T12:51:46.715Z,14.43
2023-12-28T12:54:13.569Z,8.65
2023-12-28T12:56:46.694Z,12.85
2023-12-28T12:59:18.929Z,11.13
2023-12-28T13:01:50.161Z,17.13
2023-12-28T13:04:21.080Z,12.80
2023-12-28T13:06:47.994Z,10.77
2023-12-28T13:09:14.891Z,12.90
2023-12-28T13:11:41.715Z,11.02
2023-12-28T13:14:08.505Z,22.00
2023-12-28T13:16:35.221Z,13.43
2023-12-28T13:19:10.109Z,15.77
2023-12-28T13:21:37.109Z,28.27
2023-12-28T13:24:04.262Z,15.80
2023-12-28T13:26:30.995Z,7.43
2023-12-28T13:28:57.928Z,15.20
2023-12-28T13:31:26.272Z,10.15
2023-12-28T13:33:53.414Z,8.70
2023-12-28T13:36:20.291Z,11.48
2023-12-28T13:38:47.028Z,8.57
2023-12-28T13:41:13.793Z,9.85
2023-12-28T13:43:40.562Z,6.50
2023-12-28T13:46:07.331Z,8.50
2023-12-28T13:48:34.331Z,12.55
2023-12-28T13:51:01.119Z,8.88
2023-12-28T13:53:27.813Z,17.98
2023-12-28T13:55:54.515Z,7.90
2023-12-28T13:58:21.277Z,12.20
2023-12-28T14:00:48.302Z,16.50
2023-12-28T14:03:15.242Z,18.95
2023-12-28T14:08:10.606Z,12.90
2023-12-28T14:10:39.430Z,12.57
2023-12-28T14:13:07.167Z,11.85
2023-12-28T14:15:34.033Z,9.20
2023-12-28T14:18:01.057Z,10.55
2023-12-28T14:20:29.161Z,9.50
2023-12-28T14:22:56.648Z,8.90
2023-12-28T14:25:24.364Z,12.38
2023-12-28T14:27:53.070Z,12.70
2023-12-28T14:30:20.785Z,13.20
2023-12-28T14:32:47.978Z,18.48
2023-12-28T14:35:18.010Z,15.80
2023-12-28T14:37:46.005Z,11.07
2023-12-28T14:40:12.916Z,15.63
2023-12-28T14:42:40.457Z,18.45
2023-12-28T14:45:07.838Z,10.48
2023-12-28T14:47:34.929Z,17.92
2023-12-28T14:50:02.647Z,13.68
2023-12-28T14:52:29.873Z,23.23
2023-12-28T14:54:56.637Z,28.13
2023-12-28T14:57:24.011Z,15.27
2023-12-28T14:59:51.425Z,25.85
2023-12-28T15:02:18.113Z,21.55
2023-12-28T15:04:45.058Z,11.43
2023-12-28T15:07:11.994Z,17.73
2023-12-28T15:09:39.063Z,12.30
2023-12-28T15:12:06.418Z,15.13
2023-12-28T15:14:33.414Z,13.45
2023-12-28T15:17:00.493Z,11.70
2023-12-28T15:19:27.771Z,10.73
2023-12-28T15:21:54.887Z,21.80
2023-12-28T15:24:22.104Z,14.93
2023-12-28T15:26:49.050Z,22.60
2023-12-28T15:29:16.909Z,18.38
2023-12-28T15:31:43.876Z,32.17
2023-12-28T15:34:11.070Z,19.23
2023-12-28T15:36:37.982Z,15.70
2023-12-28T15:39:06.648Z,16.92
2023-12-28T15:41:34.226Z,12.68
2023-12-28T15:44:01.019Z,15.73
2023-12-28T15:46:27.763Z,15.20
2023-12-28T15:48:54.649Z,17.33
2023-12-28T15:51:21.495Z,17.67
2023-12-28T15:53:48.208Z,17.67
2023-12-28T15:56:19.141Z,22.10
2023-12-28T15:58:46.757Z,23.88
2023-12-28T16:01:13.905Z,21.85
2023-12-28T16:03:40.986Z,32.13
2023-12-28T16:06:12.066Z,28.80
2023-12-28T16:08:39.001Z,25.42
2023-12-28T16:11:06.942Z,25.38
2023-12-28T16:13:34.874Z,27.80
2023-12-28T16:16:02.417Z,23.90
2023-12-28T16:18:30.191Z,15.10
2023-12-28T16:20:57.717Z,20.50
2023-12-28T16:23:25.035Z,19.25
2023-12-28T16:25:51.813Z,17.20
2023-12-28T16:28:18.659Z,14.95
2023-12-28T16:30:45.626Z,18.58
2023-12-28T16:33:12.559Z,18.00
2023-12-28T16:35:39.277Z,15.05
2023-12-28T16:38:06.023Z,19.20
2023-12-28T16:40:32.797Z,16.58
2023-12-28T16:42:59.592Z,13.32
2023-12-28T16:45:26.510Z,22.83
2023-12-28T16:47:53.328Z,16.63
2023-12-28T16:50:25.163Z,15.63
2023-12-28T16:52:55.288Z,20.58
2023-12-28T16:55:22.165Z,20.63
2023-12-28T16:57:48.985Z,17.90
2023-12-28T17:00:16.346Z,15.13
2023-12-28T17:02:43.061Z,20.50
2023-12-28T17:05:11.741Z,18.30
2023-12-28T17:07:38.885Z,18.70
2023-12-28T17:10:06.366Z,13.45
2023-12-28T17:12:43.100Z,15.45
2023-12-28T17:15:12.107Z,13.60
2023-12-28T17:17:40.598Z,11.18
2023-12-28T17:20:08.054Z,14.38
2023-12-28T17:22:45.232Z,12.18
2023-12-28T17:25:36.600Z,12.13
2023-12-28T17:28:11.257Z,11.95
2023-12-28T17:30:38.916Z,9.27
2023-12-28T17:33:06.637Z,10.70
2023-12-28T17:35:33.605Z,15.52
2023-12-28T17:38:02.371Z,16.40
2023-12-28T17:40:29.661Z,26.30
2023-12-28T17:43:26.803Z,23.08
2023-12-28T17:46:00.565Z,20.65
2023-12-28T17:48:33.886Z,20.27
2023-12-28T17:51:02.578Z,22.20
2023-12-28T17:53:29.540Z,22.13
2023-12-28T17:55:56.344Z,12.63
2023-12-28T17:58:23.125Z,17.10
2023-12-28T18:00:51.586Z,15.90
2023-12-28T18:03:18.372Z,13.60
2023-12-28T18:05:45.238Z,11.60
2023-12-28T18:08:13.791Z,15.45
2023-12-28T18:10:40.516Z,12.43
2023-12-28T18:13:08.846Z,16.10
2023-12-28T18:15:36.344Z,17.90
2023-12-28T18:18:03.540Z,12.63
2023-12-28T18:20:30.634Z,11.40
2023-12-28T18:22:57.355Z,21.23
2023-12-28T18:25:24.193Z,18.08
2023-12-28T18:27:50.948Z,24.98
2023-12-28T18:30:17.722Z,19.75
2023-12-28T18:32:46.037Z,14.73
2023-12-28T18:35:14.271Z,16.48
2023-12-28T18:37:42.752Z,14.02
2023-12-28T18:40:10.113Z,11.95
2023-12-28T18:42:38.557Z,11.80
2023-12-28T18:45:07.141Z,10.95
2023-12-28T18:47:34.020Z,11.02
2023-12-28T18:50:01.172Z,14.50
2023-12-28T18:52:27.947Z,11.18
2023-12-28T18:54:55.285Z,10.32
2023-12-28T18:57:24.614Z,9.98
2023-12-28T18:59:52.512Z,16.92
2023-12-28T19:02:23.005Z,15.77
2023-12-28T19:04:49.917Z,12.52
2023-12-28T19:07:16.750Z,12.48
2023-12-28T19:09:43.723Z,13.10
2023-12-28T19:12:12.553Z,11.75
2023-12-28T19:17:11.980Z,16.52
2023-12-28T19:19:39.990Z,13.65
2023-12-28T19:24:33.468Z,9.07
2023-12-28T19:27:00.215Z,15.73
2023-12-28T19:29:27.110Z,7.28
2023-12-28T19:31:53.941Z,9.27
2023-12-28T19:34:21.047Z,10.77
2023-12-28T19:36:47.913Z,8.15
2023-12-28T19:39:14.633Z,8.48
2023-12-28T19:41:41.396Z,6.70
2023-12-28T19:44:08.184Z,9.25
2023-12-28T19:46:37.376Z,10.35
2023-12-28T19:49:04.664Z,10.63
2023-12-28T19:51:31.815Z,10.45
2023-12-28T19:53:58.617Z,6.50
2023-12-28T19:56:25.478Z,12.43
2023-12-28T19:58:52.227Z,8.57
2023-12-28T20:01:19.042Z,9.05
2023-12-28T20:03:45.901Z,12.90
2023-12-28T20:06:12.876Z,10.63
2023-12-28T20:08:40.800Z,12.57
2023-12-28T20:11:08.076Z,11.35
2023-12-28T20:13:34.962Z,9.48
2023-12-28T20:16:01.793Z,9.50
2023-12-28T20:18:28.735Z,6.68
2023-12-28T20:20:55.700Z,12.57
2023-12-28T20:23:22.641Z,11.65
2023-12-28T20:25:49.431Z,10.25
2023-12-28T20:28:16.280Z,12.60
2023-12-28T20:30:43.245Z,11.45
2023-12-28T20:33:14.101Z,10.02
2023-12-28T20:35:41.427Z,10.68
2023-12-28T20:38:08.217Z,11.93
2023-12-28T20:40:34.908Z,17.00
2023-12-28T20:43:02.022Z,13.48
2023-12-28T20:45:28.857Z,14.25
2023-12-28T20:47:55.716Z,12.95
2023-12-28T20:50:22.734Z,20.40
2023-12-28T20:52:49.562Z,12.32
2023-12-28T20:55:16.264Z,13.20
2023-12-28T20:57:43.042Z,14.77
2023-12-28T21:00:10.425Z,7.80
2023-12-28T21:02:37.120Z,12.70
2023-12-28T21:05:04.265Z,13.07
2023-12-28T21:07:31.080Z,9.45
2023-12-28T21:09:57.879Z,9.50
2023-12-28T21:12:25.148Z,12.60
2023-12-28T21:14:52.060Z,25.73
2023-12-28T21:17:19.056Z,13.45
2023-12-28T21:19:47.820Z,13.00
2023-12-28T21:22:15.960Z,15.73
2023-12-28T21:24:43.245Z,12.93
2023-12-28T21:27:10.893Z,16.55
2023-12-28T21:29:40.486Z,10.23
2023-12-28T21:32:08.654Z,15.40
2023-12-28T21:34:35.719Z,13.48
2023-12-28T21:37:03.580Z,8.90
2023-12-28T21:39:30.516Z,9.77
2023-12-28T21:41:57.387Z,13.35
2023-12-28T21:44:24.155Z,15.48
2023-12-28T21:46:50.881Z,12.02
2023-12-28T21:49:17.751Z,15.10
2023-12-28T21:51:45.353Z,14.00
2023-12-28T21:54:12.139Z,18.30
2023-12-28T21:56:39.814Z,20.55
2023-12-28T21:59:07.100Z,13.50
2023-12-28T22:01:34.051Z,14.63
2023-12-28T22:04:01.059Z,20.05
2023-12-28T22:06:27.820Z,16.63
2023-12-28T22:08:56.240Z,17.35
2023-12-28T22:11:23.348Z,12.05
2023-12-28T22:13:50.050Z,19.20
2023-12-28T22:16:16.947Z,16.83
2023-12-28T22:18:44.024Z,16.83
2023-12-28T22:21:10.857Z,17.13
2023-12-28T22:23:37.628Z,20.90
2023-12-28T22:26:05.124Z,21.85
2023-12-28T22:28:31.821Z,14.90
2023-12-28T22:30:58.670Z,21.08
2023-12-28T22:33:25.696Z,10.82
2023-12-28T22:35:52.429Z,19.50
2023-12-28T22:38:19.136Z,17.88
2023-12-28T22:40:46.054Z,18.20
2023-12-28T22:43:12.894Z,17.58
2023-12-28T22:45:39.761Z,13.95
2023-12-28T22:48:07.034Z,17.17
2023-12-28T22:50:33.917Z,18.23
2023-12-28T22:53:01.049Z,14.20
2023-12-28T22:55:27.938Z,16.88
2023-12-28T22:57:56.890Z,15.20
2023-12-28T23:00:25.133Z,17.13
2023-12-28T23:02:52.112Z,16.27
2023-12-28T23:05:18.980Z,13.88
2023-12-28T23:07:45.837Z,15.43
2023-12-28T23:10:15.843Z,19.10
2023-12-28T23:12:42.570Z,15.80
2023-12-28T23:15:10.631Z,12.55
2023-12-28T23:17:37.768Z,18.85
2023-12-28T23:20:06.040Z,17.13
2023-12-28T23:22:33.843Z,17.77
2023-12-28T23:25:01.553Z,16.58
2023-12-28T23:27:29.877Z,20.23
2023-12-28T23:29:56.641Z,16.13
2023-12-28T23:32:23.496Z,19.15
2023-12-28T23:34:50.589Z,13.95
2023-12-28T23:37:17.513Z,12.80
2023-12-28T23:39:45.470Z,16.77
2023-12-28T23:44:39.916Z,17.23
2023-12-28T23:47:07.314Z,15.00
2023-12-28T23:49:35.100Z,8.07
2023-12-28T23:52:02.603Z,14.35
2023-12-28T23:54:29.616Z,16.70
2023-12-28T23:56:56.458Z,12.95
2023-12-28T23:59:23.282Z,14.68
